sensor_id;sensor_type;location;lat;lon;timestamp;pressure;altitude;pressure_sealevel;temperature;humidity
41636;BME280;27623;51.966;4.602;2023-12-20T00:01:02;64209.41;;;8.68;100.00
41636;BME280;27623;51.966;4.602;2023-12-20T00:03:28;64238.97;;;8.77;100.00
41636;BME280;27623;51.966;4.602;2023-12-20T00:05:53;64180.56;;;8.70;100.00
41636;BME280;27623;51.966;4.602;2023-12-20T00:08:18;64223.56;;;8.60;100.00
41636;BME280;27623;51.966;4.602;2023-12-20T00:10:44;64230.47;;;8.71;100.00
41636;BME280;27623;51.966;4.602;2023-12-20T00:13:10;64209.22;;;8.58;100.00
41636;BME280;27623;51.966;4.602;2023-12-20T00:15:35;64217.00;;;8.54;100.00
41636;BME280;27623;51.966;4.602;2023-12-20T00:18:00;64208.13;;;8.57;100.00
41636;BME280;27623;51.966;4.602;2023-12-20T00:20:26;64209.41;;;8.61;100.00
41636;BME280;27623;51.966;4.602;2023-12-20T00:22:52;64187.81;;;8.50;100.00
41636;BME280;27623;51.966;4.602;2023-12-20T00:25:17;64196.34;;;8.56;100.00
41636;BME280;27623;51.966;4.602;2023-12-20T00:27:43;64229.19;;;8.60;100.00
41636;BME280;27623;51.966;4.602;2023-12-20T00:30:11;64209.22;;;8.66;100.00
41636;BME280;27623;51.966;4.602;2023-12-20T00:32:36;64181.63;;;8.56;100.00
41636;BME280;27623;51.966;4.602;2023-12-20T00:35:01;64206.50;;;8.63;100.00
41636;BME280;27623;51.966;4.602;2023-12-20T00:37:27;64196.88;;;8.49;100.00
41636;BME280;27623;51.966;4.602;2023-12-20T00:39:52;64208.47;;;8.55;100.00
41636;BME280;27623;51.966;4.602;2023-12-20T00:42:18;64211.94;;;8.61;100.00
41636;BME280;27623;51.966;4.602;2023-12-20T00:44:46;64251.31;;;8.65;100.00
41636;BME280;27623;51.966;4.602;2023-12-20T00:47:11;64203.97;;;8.63;100.00
41636;BME280;27623;51.966;4.602;2023-12-20T00:49:36;64193.44;;;8.51;100.00
41636;BME280;27623;51.966;4.602;2023-12-20T00:52:01;64201.06;;;8.58;100.00
41636;BME280;27623;51.966;4.602;2023-12-20T00:54:27;64226.81;;;8.56;100.00
41636;BME280;27623;51.966;4.602;2023-12-20T00:56:53;64195.81;;;8.63;100.00
41636;BME280;27623;51.966;4.602;2023-12-20T00:59:19;64213.41;;;8.67;100.00
41636;BME280;27623;51.966;4.602;2023-12-20T01:01:44;64227.91;;;8.64;100.00
41636;BME280;27623;51.966;4.602;2023-12-20T01:04:09;64247.69;;;8.64;100.00
41636;BME280;27623;51.966;4.602;2023-12-20T01:06:37;64183.84;;;8.66;100.00
41636;BME280;27623;51.966;4.602;2023-12-20T01:09:02;64216.84;;;8.66;100.00
41636;BME280;27623;51.966;4.602;2023-12-20T01:11:28;64219.94;;;8.66;100.00
41636;BME280;27623;51.966;4.602;2023-12-20T01:13:53;64204.88;;;8.69;100.00
41636;BME280;27623;51.966;4.602;2023-12-20T01:16:18;64228.66;;;8.67;100.00
41636;BME280;27623;51.966;4.602;2023-12-20T01:18:44;64228.81;;;8.63;100.00
41636;BME280;27623;51.966;4.602;2023-12-20T01:21:09;64207.06;;;8.64;100.00
41636;BME280;27623;51.966;4.602;2023-12-20T01:23:34;64190.53;;;8.67;100.00
41636;BME280;27623;51.966;4.602;2023-12-20T01:26:02;64202.88;;;8.69;100.00
41636;BME280;27623;51.966;4.602;2023-12-20T01:28:31;64212.84;;;8.74;100.00
41636;BME280;27623;51.966;4.602;2023-12-20T01:30:57;64213.41;;;8.74;100.00
41636;BME280;27623;51.966;4.602;2023-12-20T01:33:25;64201.44;;;8.77;100.00
41636;BME280;27623;51.966;4.602;2023-12-20T01:35:50;64259.69;;;8.82;100.00
41636;BME280;27623;51.966;4.602;2023-12-20T01:38:16;64236.25;;;8.74;100.00
41636;BME280;27623;51.966;4.602;2023-12-20T01:40:44;64258.97;;;8.72;100.00
41636;BME280;27623;51.966;4.602;2023-12-20T01:43:09;64193.28;;;8.70;100.00
41636;BME280;27623;51.966;4.602;2023-12-20T01:45:38;64212.31;;;8.73;100.00
41636;BME280;27623;51.966;4.602;2023-12-20T01:48:04;64182.38;;;8.74;100.00
41636;BME280;27623;51.966;4.602;2023-12-20T01:50:31;64190.72;;;8.63;100.00
41636;BME280;27623;51.966;4.602;2023-12-20T01:52:58;64203.97;;;8.70;100.00
41636;BME280;27623;51.966;4.602;2023-12-20T01:55:25;64213.59;;;8.70;100.00
41636;BME280;27623;51.966;4.602;2023-12-20T01:57:52;64231.19;;;8.74;100.00
41636;BME280;27623;51.966;4.602;2023-12-20T02:00:19;64225.19;;;8.69;100.00
41636;BME280;27623;51.966;4.602;2023-12-20T02:02:49;64194.00;;;8.66;100.00
41636;BME280;27623;51.966;4.602;2023-12-20T02:05:16;64226.28;;;8.70;100.00
41636;BME280;27623;51.966;4.602;2023-12-20T02:07:42;64204.88;;;8.76;100.00
41636;BME280;27623;51.966;4.602;2023-12-20T02:10:08;64215.22;;;8.85;100.00
41636;BME280;27623;51.966;4.602;2023-12-20T02:12:35;64214.31;;;8.80;100.00
41636;BME280;27623;51.966;4.602;2023-12-20T02:15:01;64238.81;;;8.81;100.00
41636;BME280;27623;51.966;4.602;2023-12-20T02:17:27;64254.78;;;8.84;100.00
41636;BME280;27623;51.966;4.602;2023-12-20T02:19:53;64242.28;;;8.87;100.00
41636;BME280;27623;51.966;4.602;2023-12-20T02:22:18;64174.38;;;8.76;100.00
41636;BME280;27623;51.966;4.602;2023-12-20T02:24:43;64238.44;;;8.76;100.00
41636;BME280;27623;51.966;4.602;2023-12-20T02:27:09;64219.22;;;8.70;100.00
41636;BME280;27623;51.966;4.602;2023-12-20T02:29:35;64212.13;;;8.78;100.00
41636;BME280;27623;51.966;4.602;2023-12-20T02:32:00;64242.44;;;8.82;100.00
41636;BME280;27623;51.966;4.602;2023-12-20T02:34:26;64228.84;;;8.84;100.00
41636;BME280;27623;51.966;4.602;2023-12-20T02:36:51;64229.91;;;8.78;100.00
41636;BME280;27623;51.966;4.602;2023-12-20T02:39:18;64240.44;;;8.76;100.00
41636;BME280;27623;51.966;4.602;2023-12-20T02:41:46;64205.78;;;8.74;100.00
41636;BME280;27623;51.966;4.602;2023-12-20T02:44:12;64209.94;;;8.76;100.00
41636;BME280;27623;51.966;4.602;2023-12-20T02:46:37;64233.56;;;8.72;100.00
41636;BME280;27623;51.966;4.602;2023-12-20T02:49:02;64198.53;;;8.72;100.00
41636;BME280;27623;51.966;4.602;2023-12-20T02:51:28;64208.84;;;8.75;100.00
41636;BME280;27623;51.966;4.602;2023-12-20T02:53:53;64226.09;;;8.74;100.00
41636;BME280;27623;51.966;4.602;2023-12-20T02:56:18;64234.66;;;8.87;100.00
41636;BME280;27623;51.966;4.602;2023-12-20T02:58:44;64203.06;;;8.86;100.00
41636;BME280;27623;51.966;4.602;2023-12-20T03:01:09;64241.34;;;8.81;100.00
41636;BME280;27623;51.966;4.602;2023-12-20T03:03:34;64206.16;;;8.79;100.00
41636;BME280;27623;51.966;4.602;2023-12-20T03:06:00;64216.84;;;8.80;100.00
41636;BME280;27623;51.966;4.602;2023-12-20T03:08:25;64197.44;;;8.71;100.00
41636;BME280;27623;51.966;4.602;2023-12-20T03:10:51;64229.19;;;8.75;100.00
41636;BME280;27623;51.966;4.602;2023-12-20T03:13:19;64224.28;;;8.70;100.00
41636;BME280;27623;51.966;4.602;2023-12-20T03:15:47;64215.22;;;8.78;100.00
41636;BME280;27623;51.966;4.602;2023-12-20T03:18:12;64243.00;;;8.83;100.00
41636;BME280;27623;51.966;4.602;2023-12-20T03:20:37;64180.75;;;8.86;100.00
41636;BME280;27623;51.966;4.602;2023-12-20T03:23:03;64216.84;;;8.80;100.00
41636;BME280;27623;51.966;4.602;2023-12-20T03:25:29;64226.84;;;8.77;100.00
41636;BME280;27623;51.966;4.602;2023-12-20T03:27:54;64205.06;;;8.78;100.00
41636;BME280;27623;51.966;4.602;2023-12-20T03:30:20;64212.84;;;8.74;100.00
41636;BME280;27623;51.966;4.602;2023-12-20T03:32:45;64210.84;;;8.74;100.00
41636;BME280;27623;51.966;4.602;2023-12-20T03:35:11;64230.81;;;8.76;100.00
41636;BME280;27623;51.966;4.602;2023-12-20T03:37:36;64218.69;;;8.84;100.00
41636;BME280;27623;51.966;4.602;2023-12-20T03:40:04;64204.16;;;8.87;100.00
41636;BME280;27623;51.966;4.602;2023-12-20T03:42:30;64240.44;;;8.83;100.00
41636;BME280;27623;51.966;4.602;2023-12-20T03:44:55;64221.94;;;8.80;100.00
41636;BME280;27623;51.966;4.602;2023-12-20T03:47:21;64224.09;;;8.75;100.00
41636;BME280;27623;51.966;4.602;2023-12-20T03:49:50;64200.34;;;8.69;100.00
41636;BME280;27623;51.966;4.602;2023-12-20T03:52:15;64196.72;;;8.68;100.00
41636;BME280;27623;51.966;4.602;2023-12-20T03:54:40;64204.16;;;8.66;100.00
41636;BME280;27623;51.966;4.602;2023-12-20T03:57:07;64182.38;;;8.67;100.00
41636;BME280;27623;51.966;4.602;2023-12-20T03:59:37;64194.16;;;8.61;100.00
41636;BME280;27623;51.966;4.602;2023-12-20T04:02:02;64195.44;;;8.57;100.00
41636;BME280;27623;51.966;4.602;2023-12-20T04:04:28;64210.31;;;8.67;100.00
41636;BME280;27623;51.966;4.602;2023-12-20T04:06:53;64214.28;;;8.58;100.00
41636;BME280;27623;51.966;4.602;2023-12-20T04:09:19;64167.84;;;8.55;100.00
41636;BME280;27623;51.966;4.602;2023-12-20T04:11:46;64203.94;;;8.56;100.00
41636;BME280;27623;51.966;4.602;2023-12-20T04:14:14;64171.50;;;8.49;100.00
41636;BME280;27623;51.966;4.602;2023-12-20T04:16:39;64178.91;;;8.47;100.00
41636;BME280;27623;51.966;4.602;2023-12-20T04:19:05;64178.19;;;8.51;100.00
41636;BME280;27623;51.966;4.602;2023-12-20T04:21:30;64228.06;;;8.52;100.00
41636;BME280;27623;51.966;4.602;2023-12-20T04:23:56;64201.06;;;8.58;100.00
41636;BME280;27623;51.966;4.602;2023-12-20T04:26:21;64167.13;;;8.45;100.00
41636;BME280;27623;51.966;4.602;2023-12-20T04:28:46;64171.47;;;8.42;100.00
41636;BME280;27623;51.966;4.602;2023-12-20T04:31:12;64199.59;;;8.52;100.00
41636;BME280;27623;51.966;4.602;2023-12-20T04:33:37;64172.94;;;8.48;100.00
41636;BME280;27623;51.966;4.602;2023-12-20T04:36:03;64132.50;;;8.51;100.00
41636;BME280;27623;51.966;4.602;2023-12-20T04:38:29;64195.59;;;8.53;100.00
41636;BME280;27623;51.966;4.602;2023-12-20T04:40:54;64211.03;;;8.55;100.00
41636;BME280;27623;51.966;4.602;2023-12-20T04:43:20;64174.38;;;8.47;100.00
41636;BME280;27623;51.966;4.602;2023-12-20T04:45:45;64147.88;;;8.25;100.00
41636;BME280;27623;51.966;4.602;2023-12-20T04:48:11;64164.03;;;8.31;100.00
41636;BME280;27623;51.966;4.602;2023-12-20T04:50:37;64141.00;;;8.35;100.00
41636;BME280;27623;51.966;4.602;2023-12-20T04:53:02;64194.34;;;8.42;100.00
41636;BME280;27623;51.966;4.602;2023-12-20T04:55:28;64201.94;;;8.35;100.00
41636;BME280;27623;51.966;4.602;2023-12-20T04:57:53;64140.09;;;8.30;100.00
41636;BME280;27623;51.966;4.602;2023-12-20T05:00:19;64181.78;;;8.31;100.00
41636;BME280;27623;51.966;4.602;2023-12-20T05:02:45;64194.31;;;8.35;100.00
41636;BME280;27623;51.966;4.602;2023-12-20T05:05:10;64157.47;;;8.24;100.00
41636;BME280;27623;51.966;4.602;2023-12-20T05:07:36;64185.44;;;8.39;100.00
41636;BME280;27623;51.966;4.602;2023-12-20T05:10:04;64193.06;;;8.39;100.00
41636;BME280;27623;51.966;4.602;2023-12-20T05:12:33;64184.91;;;8.45;100.00
41636;BME280;27623;51.966;4.602;2023-12-20T05:14:59;64137.16;;;8.32;100.00
41636;BME280;27623;51.966;4.602;2023-12-20T05:17:24;64183.59;;;8.27;100.00
41636;BME280;27623;51.966;4.602;2023-12-20T05:19:50;64173.63;;;8.30;100.00
41636;BME280;27623;51.966;4.602;2023-12-20T05:22:15;64151.88;;;8.38;100.00
41636;BME280;27623;51.966;4.602;2023-12-20T05:24:40;64162.94;;;8.37;100.00
41636;BME280;27623;51.966;4.602;2023-12-20T05:27:06;64118.88;;;8.38;100.00
41636;BME280;27623;51.966;4.602;2023-12-20T05:29:31;64152.78;;;8.30;100.00
41636;BME280;27623;51.966;4.602;2023-12-20T05:31:58;64174.34;;;8.19;100.00
41636;BME280;27623;51.966;4.602;2023-12-20T05:34:23;64134.28;;;8.26;100.00
41636;BME280;27623;51.966;4.602;2023-12-20T05:36:51;64162.75;;;8.27;100.00
41636;BME280;27623;51.966;4.602;2023-12-20T05:39:17;64186.66;;;8.21;100.00
41636;BME280;27623;51.966;4.602;2023-12-20T05:41:42;64172.53;;;8.29;100.00
41636;BME280;27623;51.966;4.602;2023-12-20T05:44:07;64147.31;;;8.17;100.00
41636;BME280;27623;51.966;4.602;2023-12-20T05:46:35;64142.06;;;8.22;100.00
41636;BME280;27623;51.966;4.602;2023-12-20T05:49:01;64137.00;;;8.22;100.00
41636;BME280;27623;51.966;4.602;2023-12-20T05:51:27;64165.09;;;8.32;100.00
41636;BME280;27623;51.966;4.602;2023-12-20T05:53:52;64188.34;;;8.37;100.00
41636;BME280;27623;51.966;4.602;2023-12-20T05:56:18;64138.28;;;8.33;100.00
41636;BME280;27623;51.966;4.602;2023-12-20T05:58:43;64168.94;;;8.35;100.00
41636;BME280;27623;51.966;4.602;2023-12-20T06:01:08;64149.53;;;8.34;100.00
41636;BME280;27623;51.966;4.602;2023-12-20T06:03:34;64161.50;;;8.38;100.00
41636;BME280;27623;51.966;4.602;2023-12-20T06:06:05;64179.63;;;8.36;100.00
41636;BME280;27623;51.966;4.602;2023-12-20T06:08:31;64161.50;;;8.38;100.00
41636;BME280;27623;51.966;4.602;2023-12-20T06:10:56;64165.50;;;8.44;100.00
41636;BME280;27623;51.966;4.602;2023-12-20T06:13:22;64196.50;;;8.44;100.00
41636;BME280;27623;51.966;4.602;2023-12-20T06:15:47;64169.66;;;8.45;100.00
41636;BME280;27623;51.966;4.602;2023-12-20T06:18:12;64156.41;;;8.38;100.00
41636;BME280;27623;51.966;4.602;2023-12-20T06:20:38;64168.94;;;8.42;100.00
41636;BME280;27623;51.966;4.602;2023-12-20T06:23:03;64224.81;;;8.49;100.00
41636;BME280;27623;51.966;4.602;2023-12-20T06:25:28;64214.84;;;8.52;100.00
41636;BME280;27623;51.966;4.602;2023-12-20T06:27:54;64162.44;;;8.50;100.00
41636;BME280;27623;51.966;4.602;2023-12-20T06:30:19;64195.25;;;8.62;100.00
41636;BME280;27623;51.966;4.602;2023-12-20T06:32:47;64166.06;;;8.51;100.00
41636;BME280;27623;51.966;4.602;2023-12-20T06:35:12;64161.69;;;8.40;100.00
41636;BME280;27623;51.966;4.602;2023-12-20T06:37:38;64185.09;;;8.48;100.00
41636;BME280;27623;51.966;4.602;2023-12-20T06:40:09;64198.34;;;8.63;100.00
41636;BME280;27623;51.966;4.602;2023-12-20T06:42:34;64206.69;;;8.58;100.00
41636;BME280;27623;51.966;4.602;2023-12-20T06:45:00;64194.53;;;8.66;100.00
41636;BME280;27623;51.966;4.602;2023-12-20T06:47:25;64192.91;;;8.65;100.00
41636;BME280;27623;51.966;4.602;2023-12-20T06:49:51;64212.13;;;8.64;100.00
41636;BME280;27623;51.966;4.602;2023-12-20T06:52:17;64202.34;;;8.69;100.00
41636;BME280;27623;51.966;4.602;2023-12-20T06:54:42;64220.28;;;8.64;100.00
41636;BME280;27623;51.966;4.602;2023-12-20T06:57:07;64200.16;;;8.59;100.00
41636;BME280;27623;51.966;4.602;2023-12-20T06:59:38;64179.28;;;8.66;100.00
41636;BME280;27623;51.966;4.602;2023-12-20T07:02:03;64201.25;;;8.68;100.00
41636;BME280;27623;51.966;4.602;2023-12-20T07:04:30;64187.44;;;8.59;100.00
41636;BME280;27623;51.966;4.602;2023-12-20T07:06:55;64201.78;;;8.61;100.00
41636;BME280;27623;51.966;4.602;2023-12-20T07:09:22;64183.09;;;8.63;100.00
41636;BME280;27623;51.966;4.602;2023-12-20T07:11:48;64177.28;;;8.59;100.00
41636;BME280;27623;51.966;4.602;2023-12-20T07:14:14;64192.72;;;8.48;100.00
41636;BME280;27623;51.966;4.602;2023-12-20T07:16:39;64224.09;;;8.46;100.00
41636;BME280;27623;51.966;4.602;2023-12-20T07:19:05;64166.22;;;8.54;100.00
41636;BME280;27623;51.966;4.602;2023-12-20T07:21:31;64195.59;;;8.53;100.00
41636;BME280;27623;51.966;4.602;2023-12-20T07:23:56;64178.75;;;8.51;100.00
41636;BME280;27623;51.966;4.602;2023-12-20T07:26:22;64189.06;;;8.54;100.00
41636;BME280;27623;51.966;4.602;2023-12-20T07:28:48;64180.56;;;8.48;100.00
41636;BME280;27623;51.966;4.602;2023-12-20T07:31:15;64174.19;;;8.45;100.00
41636;BME280;27623;51.966;4.602;2023-12-20T07:33:40;64176.16;;;8.23;100.00
41636;BME280;27623;51.966;4.602;2023-12-20T07:36:06;64156.03;;;8.25;100.00
41636;BME280;27623;51.966;4.602;2023-12-20T07:38:32;64178.34;;;8.32;100.00
41636;BME280;27623;51.966;4.602;2023-12-20T07:40:57;64176.72;;;8.31;100.00
41636;BME280;27623;51.966;4.602;2023-12-20T07:43:22;64131.94;;;8.29;100.00
41636;BME280;27623;51.966;4.602;2023-12-20T07:45:47;64157.13;;;8.34;100.00
41636;BME280;27623;51.966;4.602;2023-12-20T07:48:13;64144.09;;;8.36;100.00
41636;BME280;27623;51.966;4.602;2023-12-20T07:50:39;64132.47;;;8.37;100.00
41636;BME280;27623;51.966;4.602;2023-12-20T07:53:04;64174.00;;;8.35;100.00
41636;BME280;27623;51.966;4.602;2023-12-20T07:55:29;64132.31;;;8.41;100.00
41636;BME280;27623;51.966;4.602;2023-12-20T07:57:56;64193.06;;;8.39;100.00
41636;BME280;27623;51.966;4.602;2023-12-20T08:00:21;64190.69;;;8.41;100.00
41636;BME280;27623;51.966;4.602;2023-12-20T08:02:46;64210.13;;;8.50;100.00
41636;BME280;27623;51.966;4.602;2023-12-20T08:05:12;64175.66;;;8.51;100.00
41636;BME280;27623;51.966;4.602;2023-12-20T08:07:38;64190.53;;;8.53;100.00
41636;BME280;27623;51.966;4.602;2023-12-20T08:10:04;64193.59;;;8.53;100.00
41636;BME280;27623;51.966;4.602;2023-12-20T08:12:30;64160.97;;;8.58;100.00
41636;BME280;27623;51.966;4.602;2023-12-20T08:14:55;64174.75;;;8.59;100.00
41636;BME280;27623;51.966;4.602;2023-12-20T08:17:22;64197.97;;;8.65;100.00
41636;BME280;27623;51.966;4.602;2023-12-20T08:19:48;64187.47;;;8.67;100.00
41636;BME280;27623;51.966;4.602;2023-12-20T08:22:14;64252.59;;;8.68;100.00
41636;BME280;27623;51.966;4.602;2023-12-20T08:24:39;64208.84;;;8.60;100.00
41636;BME280;27623;51.966;4.602;2023-12-20T08:27:04;64219.75;;;8.71;100.00
41636;BME280;27623;51.966;4.602;2023-12-20T08:29:30;64179.28;;;8.66;100.00
41636;BME280;27623;51.966;4.602;2023-12-20T08:31:56;64183.81;;;8.80;100.00
41636;BME280;27623;51.966;4.602;2023-12-20T08:34:22;64200.34;;;8.69;100.00
41636;BME280;27623;51.966;4.602;2023-12-20T08:36:49;64203.78;;;8.82;100.00
41636;BME280;27623;51.966;4.602;2023-12-20T08:39:15;64208.31;;;8.81;100.00
41636;BME280;27623;51.966;4.602;2023-12-20T08:41:40;64219.59;;;8.82;100.00
41636;BME280;27623;51.966;4.602;2023-12-20T08:44:06;64221.41;;;8.93;100.00
41636;BME280;27623;51.966;4.602;2023-12-20T08:46:31;64195.81;;;8.91;100.00
41636;BME280;27623;51.966;4.602;2023-12-20T08:48:56;64211.78;;;8.87;100.00
41636;BME280;27623;51.966;4.602;2023-12-20T08:51:22;64221.59;;;8.89;100.00
41636;BME280;27623;51.966;4.602;2023-12-20T08:53:48;64242.66;;;9.06;100.00
41636;BME280;27623;51.966;4.602;2023-12-20T08:56:19;64265.50;;;8.99;100.00
41636;BME280;27623;51.966;4.602;2023-12-20T08:58:46;64217.78;;;9.00;100.00
41636;BME280;27623;51.966;4.602;2023-12-20T09:01:12;64228.66;;;9.03;100.00
41636;BME280;27623;51.966;4.602;2023-12-20T09:03:37;64241.38;;;9.03;100.00
41636;BME280;27623;51.966;4.602;2023-12-20T09:06:03;64251.53;;;9.03;100.00
41636;BME280;27623;51.966;4.602;2023-12-20T09:08:28;64239.91;;;9.04;100.00
41636;BME280;27623;51.966;4.602;2023-12-20T09:10:54;64275.88;;;9.09;100.00
41636;BME280;27623;51.966;4.602;2023-12-20T09:13:19;64236.81;;;9.17;100.00
41636;BME280;27623;51.966;4.602;2023-12-20T09:15:45;64249.72;;;9.20;100.00
41636;BME280;27623;51.966;4.602;2023-12-20T09:18:13;64286.22;;;9.25;100.00
41636;BME280;27623;51.966;4.602;2023-12-20T09:20:39;64234.28;;;9.24;100.00
41636;BME280;27623;51.966;4.602;2023-12-20T09:23:04;64255.91;;;9.21;100.00
41636;BME280;27623;51.966;4.602;2023-12-20T09:25:29;64214.50;;;9.18;100.00
41636;BME280;27623;51.966;4.602;2023-12-20T09:27:55;64261.72;;;9.31;100.00
41636;BME280;27623;51.966;4.602;2023-12-20T09:30:20;64271.34;;;9.30;100.00
41636;BME280;27623;51.966;4.602;2023-12-20T09:32:46;64287.88;;;9.34;100.00
41636;BME280;27623;51.966;4.602;2023-12-20T09:35:11;64253.38;;;9.28;100.00
41636;BME280;27623;51.966;4.602;2023-12-20T09:37:36;64275.16;;;9.27;100.00
41636;BME280;27623;51.966;4.602;2023-12-20T09:40:02;64263.53;;;9.28;100.00
41636;BME280;27623;51.966;4.602;2023-12-20T09:42:56;64256.44;;;9.21;100.00
41636;BME280;27623;51.966;4.602;2023-12-20T09:45:22;64259.91;;;9.27;100.00
41636;BME280;27623;51.966;4.602;2023-12-20T09:47:49;64287.88;;;9.34;100.00
41636;BME280;27623;51.966;4.602;2023-12-20T09:50:17;64273.16;;;9.27;100.00
41636;BME280;27623;51.966;4.602;2023-12-20T09:52:43;64264.78;;;9.39;100.00
41636;BME280;27623;51.966;4.602;2023-12-20T09:55:10;64313.66;;;9.39;100.00
41636;BME280;27623;51.966;4.602;2023-12-20T09:57:35;64302.97;;;9.53;100.00
41636;BME280;27623;51.966;4.602;2023-12-20T10:00:00;64288.25;;;9.53;100.00
41636;BME280;27623;51.966;4.602;2023-12-20T10:02:29;64257.34;;;9.48;100.00
41636;BME280;27623;51.966;4.602;2023-12-20T10:04:57;64266.97;;;9.48;100.00
41636;BME280;27623;51.966;4.602;2023-12-20T10:07:22;64298.59;;;9.56;100.00
41636;BME280;27623;51.966;4.602;2023-12-20T10:09:48;64292.78;;;9.46;100.00
41636;BME280;27623;51.966;4.602;2023-12-20T10:12:14;64255.53;;;9.51;100.00
41636;BME280;27623;51.966;4.602;2023-12-20T10:14:39;64279.16;;;9.61;100.00
41636;BME280;27623;51.966;4.602;2023-12-20T10:17:05;64301.13;;;9.63;100.00
41636;BME280;27623;51.966;4.602;2023-12-20T10:19:32;64298.94;;;9.61;100.00
41636;BME280;27623;51.966;4.602;2023-12-20T10:21:59;64301.88;;;9.73;100.00
41636;BME280;27623;51.966;4.602;2023-12-20T10:24:25;64324.03;;;9.70;100.00
41636;BME280;27623;51.966;4.602;2023-12-20T10:29:32;64305.13;;;9.62;100.00
41636;BME280;27623;51.966;4.602;2023-12-20T10:31:58;64313.69;;;9.75;100.00
41636;BME280;27623;51.966;4.602;2023-12-20T10:34:23;64316.59;;;9.73;100.00
41636;BME280;27623;51.966;4.602;2023-12-20T10:36:49;64287.31;;;9.69;100.00
41636;BME280;27623;51.966;4.602;2023-12-20T10:39:15;64309.13;;;9.75;100.00
41636;BME280;27623;51.966;4.602;2023-12-20T10:41:41;64328.75;;;9.72;100.00
41636;BME280;27623;51.966;4.602;2023-12-20T10:44:08;64304.22;;;9.71;100.00
41636;BME280;27623;51.966;4.602;2023-12-20T10:46:36;64321.31;;;9.75;100.00
41636;BME280;27623;51.966;4.602;2023-12-20T10:49:04;64310.94;;;9.72;100.00
41636;BME280;27623;51.966;4.602;2023-12-20T10:51:31;64353.09;;;9.78;100.00
41636;BME280;27623;51.966;4.602;2023-12-20T10:53:56;64346.22;;;9.74;100.00
41636;BME280;27623;51.966;4.602;2023-12-20T10:56:22;64289.69;;;9.74;100.00
41636;BME280;27623;51.966;4.602;2023-12-20T10:58:50;64308.22;;;9.77;100.00
41636;BME280;27623;51.966;4.602;2023-12-20T11:01:18;64353.47;;;9.83;100.00
41636;BME280;27623;51.966;4.602;2023-12-20T11:03:53;64316.94;;;9.78;100.00
41636;BME280;27623;51.966;4.602;2023-12-20T11:09:25;64337.50;;;9.94;100.00
41636;BME280;27623;51.966;4.602;2023-12-20T11:14:29;64352.22;;;9.94;100.00
41636;BME280;27623;51.966;4.602;2023-12-20T11:17:10;64370.56;;;10.02;100.00
41636;BME280;27623;51.966;4.602;2023-12-20T11:22:24;64341.47;;;10.00;100.00
41636;BME280;27623;51.966;4.602;2023-12-20T11:24:53;64350.56;;;10.21;100.00
41636;BME280;27623;51.966;4.602;2023-12-20T11:27:20;64402.22;;;10.17;100.00
41636;BME280;27623;51.966;4.602;2023-12-20T11:29:52;64371.84;;;10.19;100.00
41636;BME280;27623;51.966;4.602;2023-12-20T11:34:58;64367.84;;;10.06;100.00
41636;BME280;27623;51.966;4.602;2023-12-20T11:37:31;64377.13;;;10.08;100.00
41636;BME280;27623;51.966;4.602;2023-12-20T11:40:02;64359.66;;;10.13;100.00
41636;BME280;27623;51.966;4.602;2023-12-20T11:42:42;64366.03;;;10.16;100.00
41636;BME280;27623;51.966;4.602;2023-12-20T11:45:14;64360.94;;;10.23;100.00
41636;BME280;27623;51.966;4.602;2023-12-20T11:47:42;64388.03;;;10.18;100.00
41636;BME280;27623;51.966;4.602;2023-12-20T11:50:08;64367.31;;;10.20;100.00
41636;BME280;27623;51.966;4.602;2023-12-20T11:52:33;64391.84;;;10.14;100.00
41636;BME280;27623;51.966;4.602;2023-12-20T11:54:58;64374.41;;;10.19;100.00
41636;BME280;27623;51.966;4.602;2023-12-20T11:57:25;64374.59;;;10.22;100.00
41636;BME280;27623;51.966;4.602;2023-12-20T11:59:52;64363.66;;;10.19;100.00
41636;BME280;27623;51.966;4.602;2023-12-20T12:02:17;64360.22;;;10.20;100.00
41636;BME280;27623;51.966;4.602;2023-12-20T12:04:43;64345.31;;;10.25;100.00
41636;BME280;27623;51.966;4.602;2023-12-20T12:07:08;64367.47;;;10.08;100.00
41636;BME280;27623;51.966;4.602;2023-12-20T12:09:34;64384.59;;;10.26;100.00
41636;BME280;27623;51.966;4.602;2023-12-20T12:11:59;64374.94;;;10.20;100.00
41636;BME280;27623;51.966;4.602;2023-12-20T12:14:25;64351.13;;;10.21;100.00
41636;BME280;27623;51.966;4.602;2023-12-20T12:16:51;64380.41;;;10.25;100.00
41636;BME280;27623;51.966;4.602;2023-12-20T12:19:25;64364.94;;;10.15;100.00
41636;BME280;27623;51.966;4.602;2023-12-20T12:22:10;64375.84;;;10.18;100.00
41636;BME280;27623;51.966;4.602;2023-12-20T12:24:48;64394.22;;;10.26;100.00
41636;BME280;27623;51.966;4.602;2023-12-20T12:27:15;64386.22;;;10.28;100.00
41636;BME280;27623;51.966;4.602;2023-12-20T12:29:42;64386.59;;;10.33;100.00
41636;BME280;27623;51.966;4.602;2023-12-20T12:32:25;64388.97;;;10.30;100.00
41636;BME280;27623;51.966;4.602;2023-12-20T12:34:50;64391.84;;;10.43;100.00
41636;BME280;27623;51.966;4.602;2023-12-20T12:37:16;64372.78;;;10.32;100.00
41636;BME280;27623;51.966;4.602;2023-12-20T12:39:41;64377.88;;;10.39;100.00
41636;BME280;27623;51.966;4.602;2023-12-20T12:42:06;64385.84;;;10.44;100.00
41636;BME280;27623;51.966;4.602;2023-12-20T12:44:32;64406.22;;;10.44;100.00
41636;BME280;27623;51.966;4.602;2023-12-20T12:46:57;64399.31;;;10.47;100.00
41636;BME280;27623;51.966;4.602;2023-12-20T12:49:22;64382.94;;;10.46;100.00
41636;BME280;27623;51.966;4.602;2023-12-20T12:51:48;64416.59;;;10.54;100.00
41636;BME280;27623;51.966;4.602;2023-12-20T12:54:13;64397.50;;;10.43;100.00
41636;BME280;27623;51.966;4.602;2023-12-20T12:56:44;64390.22;;;10.48;100.00
41636;BME280;27623;51.966;4.602;2023-12-20T12:59:10;64397.31;;;10.41;100.00
41636;BME280;27623;51.966;4.602;2023-12-20T13:01:36;64418.25;;;10.48;100.00
41636;BME280;27623;51.966;4.602;2023-12-20T13:04:01;64424.06;;;10.51;100.00
41636;BME280;27623;51.966;4.602;2023-12-20T13:06:28;64396.22;;;10.40;100.00
41636;BME280;27623;51.966;4.602;2023-12-20T13:08:54;64409.13;;;10.42;100.00